createdAt,value
2022-10-05T00:01:26.024Z,15.58
2022-10-05T00:03:59.029Z,15.58
2022-10-05T00:06:28.755Z,15.58
2022-10-05T00:08:55.317Z,15.50
2022-10-05T00:11:21.821Z,15.52
2022-10-05T00:13:48.292Z,15.53
2022-10-05T00:16:19.875Z,15.51
2022-10-05T00:18:49.121Z,15.55
2022-10-05T00:21:27.310Z,15.52
2022-10-05T00:23:56.212Z,15.51
2022-10-05T00:26:27.455Z,15.47
2022-10-05T00:28:54.744Z,15.53
2022-10-05T00:31:23.455Z,15.51
2022-10-05T00:33:50.018Z,15.52
2022-10-05T00:36:16.978Z,15.50
2022-10-05T00:38:44.058Z,15.55
2022-10-05T00:41:35.451Z,15.57
2022-10-05T00:44:47.584Z,15.53
2022-10-05T00:47:32.971Z,15.60
2022-10-05T00:50:13.485Z,15.53
2022-10-05T00:53:14.080Z,15.56
2022-10-05T00:55:54.289Z,15.57
2022-10-05T00:58:32.756Z,15.53
2022-10-05T01:01:11.299Z,15.48
2022-10-05T01:03:57.308Z,15.49
2022-10-05T01:07:05.228Z,15.53
2022-10-05T01:09:31.668Z,15.50
2022-10-05T01:12:04.629Z,15.43
2022-10-05T01:14:56.285Z,15.36
2022-10-05T01:17:28.912Z,15.28
2022-10-05T01:20:24.824Z,15.24
2022-10-05T01:22:51.157Z,15.20
2022-10-05T01:25:32.170Z,15.17
2022-10-05T01:28:15.632Z,15.14
2022-10-05T01:30:54.622Z,15.11
2022-10-05T01:33:27.294Z,15.11
2022-10-05T01:36:02.746Z,15.14
2022-10-05T01:38:54.042Z,15.15
2022-10-05T01:41:34.609Z,15.08
2022-10-05T01:44:07.481Z,15.08
2022-10-05T01:46:39.948Z,15.07
2022-10-05T01:49:43.816Z,15.03
2022-10-05T01:52:33.507Z,15.07
2022-10-05T01:55:18.999Z,15.03
2022-10-05T01:57:51.622Z,15.04
2022-10-05T02:00:19.495Z,15.03
2022-10-05T02:02:48.713Z,15.14
2022-10-05T02:05:24.823Z,15.06
2022-10-05T02:07:53.089Z,15.05
2022-10-05T02:10:38.826Z,15.03
2022-10-05T02:13:10.771Z,15.05
2022-10-05T02:15:44.193Z,15.13
2022-10-05T02:18:14.827Z,15.05
2022-10-05T02:20:42.546Z,15.04
2022-10-05T02:23:14.874Z,15.03
2022-10-05T02:25:43.658Z,15.02
2022-10-05T02:28:13.906Z,15.00
2022-10-05T02:30:45.307Z,15.02
2022-10-05T02:33:37.475Z,15.03
2022-10-05T02:36:28.717Z,14.98
2022-10-05T02:39:02.275Z,15.01
2022-10-05T02:41:32.929Z,14.95
2022-10-05T02:44:08.479Z,14.96
2022-10-05T02:46:43.457Z,14.96
2022-10-05T02:49:19.183Z,14.93
2022-10-05T02:52:10.616Z,14.93
2022-10-05T02:54:46.170Z,14.97
2022-10-05T02:57:28.869Z,14.93
2022-10-05T03:00:06.197Z,14.92
2022-10-05T03:02:40.515Z,15.02
2022-10-05T03:05:18.316Z,14.99
2022-10-05T03:07:56.538Z,14.95
2022-10-05T03:10:30.237Z,15.00
2022-10-05T03:12:59.919Z,14.95
2022-10-05T03:15:49.038Z,14.99
2022-10-05T03:18:34.154Z,14.97
2022-10-05T03:21:15.498Z,14.94
2022-10-05T03:23:55.079Z,14.98
2022-10-05T03:26:39.097Z,14.94
2022-10-05T03:29:17.807Z,14.93
2022-10-05T03:32:07.643Z,14.95
2022-10-05T03:34:42.384Z,14.98
2022-10-05T03:37:29.378Z,14.91
2022-10-05T03:40:08.163Z,14.90
2022-10-05T03:42:37.562Z,15.00
2022-10-05T03:45:56.608Z,14.91
2022-10-05T03:48:30.017Z,15.00
2022-10-05T03:51:20.625Z,14.95
2022-10-05T03:53:53.283Z,14.90
2022-10-05T03:56:36.383Z,14.93
2022-10-05T04:00:07.705Z,14.90
2022-10-05T04:02:35.087Z,14.88
2022-10-05T04:05:10.866Z,14.86
2022-10-05T04:07:43.565Z,14.83
2022-10-05T04:10:16.761Z,14.81
2022-10-05T04:12:47.984Z,14.81
2022-10-05T04:15:29.045Z,14.81
2022-10-05T04:18:03.027Z,14.80
2022-10-05T04:20:36.688Z,14.79
2022-10-05T04:23:19.140Z,14.74
2022-10-05T04:25:54.351Z,14.81
2022-10-05T04:28:39.501Z,14.74
2022-10-05T04:31:11.910Z,14.75
2022-10-05T04:33:38.531Z,14.74
2022-10-05T04:36:15.814Z,14.69
2022-10-05T04:38:54.322Z,14.72
2022-10-05T04:41:49.075Z,14.71
2022-10-05T04:44:42.623Z,14.77
2022-10-05T04:47:45.495Z,14.68
2022-10-05T04:50:27.609Z,14.74
2022-10-05T04:53:00.169Z,14.72
2022-10-05T04:55:47.149Z,14.71
2022-10-05T04:58:20.770Z,14.73
2022-10-05T05:01:29.197Z,14.68
2022-10-05T05:03:58.702Z,14.68
2022-10-05T05:07:09.997Z,14.69
2022-10-05T05:09:52.789Z,14.74
2022-10-05T05:12:46.808Z,14.76
2022-10-05T05:15:38.015Z,14.73
2022-10-05T05:18:24.511Z,14.71
2022-10-05T05:20:57.092Z,14.70
2022-10-05T05:23:35.362Z,14.71
2022-10-05T05:26:04.914Z,14.72
2022-10-05T05:28:52.151Z,14.69
2022-10-05T05:31:46.308Z,14.73
2022-10-05T05:34:31.135Z,14.72
2022-10-05T05:37:22.140Z,14.73
2022-10-05T05:40:10.171Z,14.80
2022-10-05T05:43:02.570Z,14.80
2022-10-05T05:45:55.339Z,14.81
2022-10-05T05:48:21.734Z,14.78
2022-10-05T05:51:09.272Z,14.76
2022-10-05T05:53:45.655Z,14.85
2022-10-05T05:56:19.200Z,14.87
2022-10-05T05:58:55.710Z,14.81
2022-10-05T06:01:34.896Z,14.79
2022-10-05T06:04:12.791Z,14.82
2022-10-05T06:06:42.633Z,14.83
2022-10-05T06:09:21.299Z,14.88
2022-10-05T06:12:21.473Z,14.85
2022-10-05T06:14:52.933Z,14.91
2022-10-05T06:17:26.395Z,14.94
2022-10-05T06:19:58.976Z,14.87
2022-10-05T06:22:35.755Z,14.93
2022-10-05T06:25:15.048Z,15.01
2022-10-05T06:28:02.029Z,14.98
2022-10-05T06:30:51.820Z,15.02
2022-10-05T06:33:42.029Z,15.04
2022-10-05T06:36:20.653Z,15.08
2022-10-05T06:39:21.390Z,15.09
2022-10-05T06:42:19.504Z,15.14
2022-10-05T06:44:53.568Z,15.15
2022-10-05T06:47:47.440Z,15.10
2022-10-05T06:50:21.977Z,15.06
2022-10-05T06:53:19.339Z,15.14
2022-10-05T06:56:12.153Z,15.08
2022-10-05T06:58:51.147Z,15.06
2022-10-05T07:01:33.531Z,15.05
2022-10-05T07:04:07.343Z,15.05
2022-10-05T07:07:00.197Z,15.05
2022-10-05T07:09:28.520Z,15.07
2022-10-05T07:12:42.051Z,15.13
2022-10-05T07:15:31.536Z,15.06
2022-10-05T07:18:05.238Z,15.04
2022-10-05T07:21:09.384Z,15.05
2022-10-05T07:23:47.904Z,15.04
2022-10-05T07:26:31.570Z,15.04
2022-10-05T07:29:07.132Z,15.04
2022-10-05T07:31:49.727Z,15.08
2022-10-05T07:34:54.608Z,15.08
2022-10-05T07:37:48.133Z,15.06
2022-10-05T07:40:19.735Z,15.07
2022-10-05T07:43:14.656Z,15.12
2022-10-05T07:45:59.375Z,15.07
2022-10-05T07:48:43.330Z,15.14
2022-10-05T07:51:16.142Z,15.07
2022-10-05T07:54:10.645Z,15.14
2022-10-05T07:56:41.397Z,15.06
2022-10-05T07:59:16.029Z,15.08
2022-10-05T08:01:46.056Z,15.07
2022-10-05T08:04:19.694Z,15.11
2022-10-05T08:06:55.358Z,15.16
2022-10-05T08:09:58.941Z,15.18
2022-10-05T08:12:31.809Z,15.13
2022-10-05T08:15:10.446Z,15.13
2022-10-05T08:17:56.890Z,15.17
2022-10-05T08:20:28.387Z,15.20
2022-10-05T08:23:24.028Z,15.26
2022-10-05T08:26:09.278Z,15.24
2022-10-05T08:28:40.025Z,15.22
2022-10-05T08:31:19.280Z,15.34
2022-10-05T08:33:56.838Z,15.29
2022-10-05T08:36:30.961Z,15.39
2022-10-05T08:38:59.408Z,15.38
2022-10-05T08:41:44.941Z,15.43
2022-10-05T08:44:42.840Z,15.50
2022-10-05T08:47:12.359Z,15.48
2022-10-05T08:50:16.119Z,15.58
2022-10-05T08:53:19.633Z,15.57
2022-10-05T08:56:10.261Z,15.52
2022-10-05T08:58:42.575Z,15.55
2022-10-05T09:01:27.215Z,15.51
2022-10-05T09:04:17.006Z,15.49
2022-10-05T09:06:56.526Z,15.59
2022-10-05T09:09:56.260Z,15.62
2022-10-05T09:12:47.577Z,15.57
2022-10-05T09:15:39.590Z,15.57
2022-10-05T09:18:31.353Z,15.60
2022-10-05T09:20:59.272Z,15.61
2022-10-05T09:23:45.119Z,15.69
2022-10-05T09:26:49.469Z,15.82
2022-10-05T09:29:35.203Z,15.96
2022-10-05T09:32:15.567Z,15.97
2022-10-05T09:35:33.062Z,16.06
2022-10-05T09:37:59.466Z,16.14
2022-10-05T09:40:35.019Z,15.99
2022-10-05T09:43:16.906Z,15.94
2022-10-05T09:46:20.794Z,16.03
2022-10-05T09:49:11.523Z,15.88
2022-10-05T09:52:06.220Z,15.89
2022-10-05T09:54:43.676Z,15.89
2022-10-05T09:57:50.787Z,15.85
2022-10-05T10:00:58.737Z,15.89
2022-10-05T10:03:45.018Z,15.87
2022-10-05T10:06:39.328Z,15.82
2022-10-05T10:09:14.650Z,15.80
2022-10-05T10:11:49.592Z,15.83
2022-10-05T10:14:16.190Z,15.81
2022-10-05T10:16:45.677Z,15.83
2022-10-05T10:19:16.562Z,15.79
2022-10-05T10:22:11.894Z,15.83
2022-10-05T10:25:01.524Z,15.91
2022-10-05T10:27:42.406Z,15.81
2022-10-05T10:30:46.844Z,15.76
2022-10-05T10:33:35.084Z,15.74
2022-10-05T10:36:16.404Z,15.77
2022-10-05T10:39:12.588Z,15.69
2022-10-05T10:41:45.412Z,15.68
2022-10-05T10:44:17.822Z,15.78
2022-10-05T10:46:48.454Z,15.81
2022-10-05T10:49:52.278Z,15.81
2022-10-05T10:52:27.526Z,15.80
2022-10-05T10:55:29.701Z,15.78
2022-10-05T10:57:56.138Z,15.76
2022-10-05T11:00:46.704Z,15.90
2022-10-05T11:03:19.549Z,15.86
2022-10-05T11:06:01.416Z,15.77
2022-10-05T11:08:46.533Z,15.85
2022-10-05T11:11:31.978Z,15.81
2022-10-05T11:14:29.047Z,15.84
2022-10-05T11:17:04.595Z,15.94
2022-10-05T11:20:03.465Z,15.98
2022-10-05T11:22:40.735Z,16.01
2022-10-05T11:25:16.296Z,16.06
2022-10-05T11:28:09.859Z,16.12
2022-10-05T11:30:55.331Z,16.18
2022-10-05T11:33:40.547Z,16.15
2022-10-05T11:36:31.893Z,16.21
2022-10-05T11:39:07.161Z,16.13
2022-10-05T11:41:59.683Z,16.22
2022-10-05T11:45:03.641Z,16.36
2022-10-05T11:47:40.266Z,16.41
2022-10-05T11:50:35.658Z,16.54
2022-10-05T11:53:06.260Z,16.56
2022-10-05T11:55:57.767Z,16.48
2022-10-05T11:58:42.973Z,16.57
2022-10-05T12:01:28.229Z,16.65
2022-10-05T12:04:16.733Z,16.81
2022-10-05T12:06:55.319Z,16.65
2022-10-05T12:09:40.465Z,16.75
2022-10-05T12:12:16.951Z,16.81
2022-10-05T12:14:52.605Z,16.81
2022-10-05T12:17:26.838Z,16.74
2022-10-05T12:20:32.188Z,16.76
2022-10-05T12:23:01.896Z,16.92
2022-10-05T12:25:50.207Z,16.91
2022-10-05T12:28:21.227Z,16.98
2022-10-05T12:31:08.111Z,16.88
2022-10-05T12:33:40.957Z,16.73
2022-10-05T12:36:15.668Z,16.86
2022-10-05T12:38:49.738Z,16.78
2022-10-05T12:41:18.679Z,16.84
2022-10-05T12:43:51.231Z,16.78
2022-10-05T12:46:24.018Z,16.69
2022-10-05T12:48:56.239Z,16.65
2022-10-05T12:51:40.605Z,16.63
2022-10-05T12:54:46.581Z,16.65
2022-10-05T12:57:16.030Z,16.52
2022-10-05T12:59:45.794Z,16.53
2022-10-05T13:02:25.440Z,16.58
2022-10-05T13:05:10.280Z,16.59
2022-10-05T13:07:44.023Z,16.63
2022-10-05T13:10:28.103Z,16.64
2022-10-05T13:13:13.320Z,16.73
2022-10-05T13:16:12.195Z,16.76
2022-10-05T13:18:44.873Z,16.88
2022-10-05T13:21:23.478Z,17.10
2022-10-05T13:24:23.975Z,17.14
2022-10-05T13:26:55.504Z,17.22
2022-10-05T13:29:38.812Z,17.04
2022-10-05T13:32:26.156Z,17.10
2022-10-05T13:35:17.539Z,17.04
2022-10-05T13:37:48.104Z,17.07
2022-10-05T13:40:23.627Z,17.30
2022-10-05T13:43:44.023Z,17.41
2022-10-05T13:46:20.069Z,17.42
2022-10-05T13:49:08.537Z,17.48
2022-10-05T13:51:45.876Z,17.40
2022-10-05T13:54:37.777Z,17.19
2022-10-05T13:57:29.878Z,17.05
2022-10-05T14:00:05.076Z,17.10
2022-10-05T14:02:37.803Z,17.12
2022-10-05T14:05:28.615Z,17.03
2022-10-05T14:08:04.384Z,17.00
2022-10-05T14:10:44.069Z,17.04
2022-10-05T14:13:21.331Z,16.97
2022-10-05T14:16:18.290Z,17.01
2022-10-05T14:18:55.573Z,17.02
2022-10-05T14:21:28.063Z,17.06
2022-10-05T14:23:57.229Z,17.09
2022-10-05T14:26:23.633Z,17.09
2022-10-05T14:28:59.132Z,17.13
2022-10-05T14:31:34.589Z,17.02
2022-10-05T14:34:46.780Z,16.98
2022-10-05T14:37:25.236Z,17.17
2022-10-05T14:39:59.451Z,16.99
2022-10-05T14:42:29.220Z,16.97
2022-10-05T14:44:59.774Z,16.99
2022-10-05T14:47:30.187Z,16.99
2022-10-05T14:50:16.106Z,17.01
2022-10-05T14:52:59.768Z,17.05
2022-10-05T14:55:45.830Z,16.91
2022-10-05T14:58:27.395Z,16.96
2022-10-05T15:01:14.813Z,16.97
2022-10-05T15:03:51.581Z,16.93
2022-10-05T15:06:41.996Z,16.85
2022-10-05T15:09:17.003Z,16.85
2022-10-05T15:11:44.450Z,16.89
2022-10-05T15:14:23.893Z,16.95
2022-10-05T15:16:57.983Z,17.01
2022-10-05T15:19:31.157Z,16.96
2022-10-05T15:22:29.905Z,16.98
2022-10-05T15:25:22.252Z,16.83
2022-10-05T15:28:06.798Z,16.76
2022-10-05T15:30:37.937Z,16.70
2022-10-05T15:33:21.688Z,16.70
2022-10-05T15:36:06.350Z,16.70
2022-10-05T15:38:44.696Z,16.69
2022-10-05T15:41:20.431Z,16.69
2022-10-05T15:43:53.381Z,16.66
2022-10-05T15:46:39.143Z,16.71
2022-10-05T15:49:53.857Z,16.62
2022-10-05T15:52:47.883Z,16.63
2022-10-05T15:55:30.185Z,16.66
2022-10-05T15:57:56.606Z,16.66
2022-10-05T16:00:25.403Z,16.59
2022-10-05T16:03:23.441Z,16.64
2022-10-05T16:06:25.973Z,16.62
2022-10-05T16:09:17.569Z,16.60
2022-10-05T16:11:44.052Z,16.60
2022-10-05T16:14:27.981Z,16.57
2022-10-05T16:17:04.730Z,16.61
2022-10-05T16:19:52.464Z,16.59
2022-10-05T16:22:31.908Z,16.59
2022-10-05T16:25:12.178Z,16.59
2022-10-05T16:27:47.785Z,16.62
2022-10-05T16:30:20.936Z,16.62
2022-10-05T16:33:03.730Z,16.66
2022-10-05T16:35:44.466Z,16.63
2022-10-05T16:38:26.909Z,16.64
2022-10-05T16:41:28.117Z,16.63
2022-10-05T16:43:59.176Z,16.63
2022-10-05T16:46:41.872Z,16.62
2022-10-05T16:49:31.471Z,16.65
2022-10-05T16:52:02.436Z,16.63
2022-10-05T16:54:46.858Z,16.60
2022-10-05T16:57:17.510Z,16.55
2022-10-05T17:00:02.677Z,16.59
2022-10-05T17:02:43.590Z,16.64
2022-10-05T17:05:38.595Z,16.65
2022-10-05T17:08:34.029Z,16.56
2022-10-05T17:11:06.638Z,16.55
2022-10-05T17:13:51.312Z,16.58
2022-10-05T17:16:43.034Z,16.58
2022-10-05T17:19:15.683Z,16.58
2022-10-05T17:21:59.506Z,16.64
2022-10-05T17:24:41.729Z,16.59
2022-10-05T17:27:19.288Z,16.56
2022-10-05T17:29:53.836Z,16.64
2022-10-05T17:32:36.234Z,16.63
2022-10-05T17:35:18.544Z,16.65
2022-10-05T17:38:14.473Z,16.69
2022-10-05T17:41:01.722Z,16.69
2022-10-05T17:43:30.760Z,16.73
2022-10-05T17:46:00.675Z,16.76
2022-10-05T17:48:49.087Z,16.79
2022-10-05T17:51:46.412Z,16.82
2022-10-05T17:54:37.690Z,16.91
2022-10-05T17:57:04.579Z,16.92
2022-10-05T17:59:46.063Z,16.83
2022-10-05T18:02:36.184Z,16.61
2022-10-05T18:05:03.458Z,16.42
2022-10-05T18:07:31.316Z,16.39
2022-10-05T18:10:00.194Z,16.42
2022-10-05T18:12:39.086Z,16.49
2022-10-05T18:15:05.480Z,16.57
2022-10-05T18:17:47.159Z,16.59
2022-10-05T18:20:18.428Z,16.69
2022-10-05T18:22:46.736Z,16.72
2022-10-05T18:25:25.892Z,16.66
2022-10-05T18:28:23.175Z,16.40
2022-10-05T18:31:11.489Z,16.16
2022-10-05T18:33:38.055Z,16.09
2022-10-05T18:36:18.894Z,15.96
2022-10-05T18:39:08.692Z,15.91
2022-10-05T18:41:57.186Z,15.95
2022-10-05T18:44:39.448Z,15.87
2022-10-05T18:47:25.565Z,15.72
2022-10-05T18:50:25.781Z,15.34
2022-10-05T18:53:13.481Z,15.02
2022-10-05T18:55:58.955Z,14.82
2022-10-05T18:58:37.137Z,14.72
2022-10-05T19:01:29.737Z,14.61
2022-10-05T19:04:24.679Z,14.10
2022-10-05T19:07:11.450Z,13.76
2022-10-05T19:09:44.846Z,13.55
2022-10-05T19:12:24.868Z,13.38
2022-10-05T19:15:16.003Z,13.25
2022-10-05T19:17:45.320Z,13.18
2022-10-05T19:20:26.700Z,13.14
2022-10-05T19:23:03.902Z,13.16
2022-10-05T19:25:52.056Z,13.15
2022-10-05T19:28:23.804Z,13.17
2022-10-05T19:31:11.978Z,13.20
2022-10-05T19:34:05.833Z,13.18
2022-10-05T19:36:40.221Z,13.22
2022-10-05T19:39:16.934Z,13.25
2022-10-05T19:41:52.784Z,13.29
2022-10-05T19:44:28.401Z,13.32
2022-10-05T19:47:33.192Z,13.33
2022-10-05T19:50:18.834Z,13.34
2022-10-05T19:52:49.844Z,13.37
2022-10-05T19:55:22.439Z,13.42
2022-10-05T19:57:50.964Z,13.43
2022-10-05T20:00:26.517Z,13.44
2022-10-05T20:03:17.695Z,13.46
2022-10-05T20:05:44.979Z,13.47
2022-10-05T20:08:19.462Z,13.47
2022-10-05T20:11:03.732Z,13.46
2022-10-05T20:13:33.399Z,13.38
2022-10-05T20:16:33.721Z,13.32
2022-10-05T20:19:19.057Z,13.30
2022-10-05T20:21:54.120Z,13.30
2022-10-05T20:24:27.229Z,13.27
2022-10-05T20:27:02.045Z,13.20
2022-10-05T20:29:29.952Z,13.11
2022-10-05T20:31:56.900Z,13.05
2022-10-05T20:37:04.379Z,12.98
2022-10-05T20:39:31.386Z,12.92
2022-10-05T20:41:58.619Z,12.87
2022-10-05T20:44:26.051Z,12.88
2022-10-05T20:46:55.238Z,12.86
2022-10-05T20:49:25.738Z,12.84
2022-10-05T20:51:53.554Z,12.88
2022-10-05T20:54:20.031Z,12.92
2022-10-05T20:56:46.502Z,12.97
2022-10-05T20:59:14.229Z,13.02
2022-10-05T21:01:49.690Z,13.09
2022-10-05T21:04:25.109Z,13.25
2022-10-05T21:06:52.922Z,13.34
2022-10-05T21:09:21.317Z,13.40
2022-10-05T21:11:54.653Z,13.43
2022-10-05T21:14:21.246Z,13.57
2022-10-05T21:16:47.769Z,13.61
2022-10-05T21:19:14.698Z,13.61
2022-10-05T21:21:42.915Z,13.66
2022-10-05T21:24:10.061Z,13.68
2022-10-05T21:26:37.476Z,13.78
2022-10-05T21:29:06.859Z,13.78
2022-10-05T21:31:37.160Z,13.80
2022-10-05T21:34:04.269Z,13.78
2022-10-05T21:36:30.895Z,13.73
2022-10-05T21:38:57.471Z,13.69
2022-10-05T21:41:24.047Z,13.62
2022-10-05T21:43:50.721Z,13.62
2022-10-05T21:46:22.182Z,13.66
2022-10-05T21:48:49.492Z,13.65
2022-10-05T21:51:18.655Z,13.60
2022-10-05T21:54:11.911Z,13.57
2022-10-05T21:56:40.921Z,13.61
2022-10-05T21:59:09.600Z,13.65
2022-10-05T22:01:36.606Z,13.66
2022-10-05T22:04:06.452Z,13.65
2022-10-05T22:06:35.036Z,13.66
2022-10-05T22:09:02.176Z,13.75
2022-10-05T22:11:29.099Z,13.84
2022-10-05T22:14:02.133Z,13.87
2022-10-05T22:16:31.705Z,13.82
2022-10-05T22:18:58.844Z,13.79
2022-10-05T22:21:25.392Z,13.76
2022-10-05T22:23:51.887Z,13.77
2022-10-05T22:26:19.915Z,13.69
2022-10-05T22:28:46.930Z,13.71
2022-10-05T22:31:13.687Z,13.73
2022-10-05T22:33:40.869Z,13.76
2022-10-05T22:36:07.993Z,13.69
2022-10-05T22:38:34.564Z,13.66
2022-10-05T22:41:01.029Z,13.64
2022-10-05T22:43:27.547Z,13.61
2022-10-05T22:45:54.883Z,13.59
2022-10-05T22:48:21.371Z,13.64
2022-10-05T22:50:48.845Z,13.61
2022-10-05T22:53:15.354Z,13.61
2022-10-05T22:55:41.861Z,13.59
2022-10-05T22:58:08.394Z,13.58
2022-10-05T23:00:56.844Z,13.55
2022-10-05T23:03:21.503Z,13.51
2022-10-05T23:05:47.975Z,13.47
2022-10-05T23:08:16.120Z,13.40
2022-10-05T23:10:43.364Z,13.38
2022-10-05T23:13:09.904Z,13.37
2022-10-05T23:15:36.412Z,13.35
2022-10-05T23:18:02.917Z,13.35
2022-10-05T23:20:29.387Z,13.32
2022-10-05T23:22:55.937Z,13.34
2022-10-05T23:25:22.550Z,13.39
2022-10-05T23:27:49.317Z,13.37
2022-10-05T23:30:15.809Z,13.28
2022-10-05T23:32:44.134Z,13.23
2022-10-05T23:35:12.453Z,13.25
2022-10-05T23:37:43.620Z,13.22
2022-10-05T23:40:20.444Z,13.21
2022-10-05T23:42:47.079Z,13.19
2022-10-05T23:45:13.597Z,13.15
2022-10-05T23:47:40.528Z,13.17
2022-10-05T23:50:08.698Z,13.17
2022-10-05T23:52:35.966Z,13.14
2022-10-05T23:55:04.354Z,13.14
2022-10-05T23:57:31.030Z,13.15
2022-10-05T23:59:57.597Z,13.15
